首页
METAR-TAF:

METAR-TAF

机场 :

Redwood Falls Municipal Airport

Redwood Falls, 明尼蘇達州, 美国

纬度: 44-32-50N, 经度: 095-04-56W, 海拔: 312米

当前天气观测

该预报发布于21分钟前的22:53 UTC
风速4节,风向多变
温度 27°C
湿度 32%
气压 1017 hPa
能見度: 16.1公里
天空无云

METAR: KRWF 142253Z AUTO VRB04KT 10SM CLR 27/09 A3003 RMK AO2 SLP165 T02670094

时间: 18:14 (23:14 UTC)

预报

该预报发布于5小时和40分钟前的17:34 UTC
预报有效从14日的 18点(UTC)到 15日的 18点(UTC)
风速4节,风向北转西北
能見度: 10公里
天空无云
从 14日的 2200点(UTC)
风速4节,风向东转东南
能見度: 10公里
少量云层高于25000英尺
从 15日的 0200点(UTC)
风速4节,风向南转南东
能見度: 10公里
散云层高于25000英尺
从 15日的 1400点(UTC)
风速16节,风向南转南东,有时为24节阵风
能見度: 9.7公里
阴天层高于5000英尺
小雨,

TAF: KRWF 141734Z 1418/1518 34004KT P6SM SKC FM142200 11004KT P6SM FEW250 FM150200 15004KT P6SM SCT250 FM151400 16016G24KT 6SM -RA OVC050

超过4000个机场的气象观测和天气预报(METAR&TAF报告)。

可查询的气象台以黄色和红色小点在地图上表示。

将鼠标移到小点上方,可查看气象台名称。

然后点击查看天气观测和预报。

如需切换地图:点击带黑十字的绿色按钮放大地图;点击带横线的绿色按钮缩小地图;或者点击绿色箭头查看邻近地区的地图。


METAR-TAF: